sensor_id;sensor_type;location;lat;lon;timestamp;P1;durP1;ratioP1;P2;durP2;ratioP2
74912;SDS011;63878;55.624;37.304;2022-11-15T08:19:17;7.55;;;2.20;;
74912;SDS011;63878;55.624;37.304;2022-11-15T08:29:18;7.78;;;1.85;;
74912;SDS011;63878;55.624;37.304;2022-11-15T08:39:18;5.07;;;1.10;;
74912;SDS011;63878;55.624;37.304;2022-11-15T08:49:19;7.27;;;1.90;;
74912;SDS011;63878;55.624;37.304;2022-11-15T08:59:20;6.17;;;2.10;;
74912;SDS011;63878;55.624;37.304;2022-11-15T09:09:20;4.13;;;1.83;;
74912;SDS011;63878;55.624;37.304;2022-11-15T09:19:21;7.00;;;2.03;;
74912;SDS011;63878;55.624;37.304;2022-11-15T09:29:22;2.57;;;1.07;;
74912;SDS011;63878;55.624;37.304;2022-11-15T09:39:22;5.20;;;1.60;;
74912;SDS011;63878;55.624;37.304;2022-11-15T09:49:23;2.13;;;1.20;;
74912;SDS011;63878;55.624;37.304;2022-11-15T09:59:31;5.22;;;1.25;;
74912;SDS011;63878;55.624;37.304;2022-11-15T10:10:01;4.18;;;1.42;;
74912;SDS011;63878;55.624;37.304;2022-11-15T10:20:24;2.33;;;1.08;;
74912;SDS011;63878;55.624;37.304;2022-11-15T10:30:39;4.05;;;1.45;;
74912;SDS011;63878;55.624;37.304;2022-11-15T10:40:41;5.57;;;1.70;;
74912;SDS011;63878;55.624;37.304;2022-11-15T10:50:42;2.37;;;1.10;;
74912;SDS011;63878;55.624;37.304;2022-11-15T11:00:45;5.07;;;1.30;;
74912;SDS011;63878;55.624;37.304;2022-11-15T11:10:56;3.47;;;1.35;;
74912;SDS011;63878;55.624;37.304;2022-11-15T11:20:59;3.15;;;1.35;;
74912;SDS011;63878;55.624;37.304;2022-11-15T12:02:20;2.28;;;1.35;;
74912;SDS011;63878;55.624;37.304;2022-11-15T12:22:46;2.95;;;1.35;;
74912;SDS011;63878;55.624;37.304;2022-11-15T12:33:00;5.50;;;2.20;;
74912;SDS011;63878;55.624;37.304;2022-11-15T12:43:32;3.58;;;1.85;;
74912;SDS011;63878;55.624;37.304;2022-11-15T12:53:41;3.55;;;1.77;;
74912;SDS011;63878;55.624;37.304;2022-11-15T13:14:53;7.05;;;3.22;;
74912;SDS011;63878;55.624;37.304;2022-11-15T13:34:49;3.67;;;1.80;;
74912;SDS011;63878;55.624;37.304;2022-11-15T13:44:57;4.15;;;2.13;;
74912;SDS011;63878;55.624;37.304;2022-11-15T13:55:04;5.72;;;2.20;;
74912;SDS011;63878;55.624;37.304;2022-11-15T14:25:38;6.15;;;2.67;;
74912;SDS011;63878;55.624;37.304;2022-11-15T14:35:39;6.10;;;3.03;;
74912;SDS011;63878;55.624;37.304;2022-11-15T14:45:39;5.10;;;2.93;;
74912;SDS011;63878;55.624;37.304;2022-11-15T14:55:41;6.85;;;4.13;;
74912;SDS011;63878;55.624;37.304;2022-11-15T15:05:43;6.93;;;4.18;;
74912;SDS011;63878;55.624;37.304;2022-11-15T15:15:44;6.00;;;3.30;;
74912;SDS011;63878;55.624;37.304;2022-11-15T15:25:45;8.82;;;5.53;;
74912;SDS011;63878;55.624;37.304;2022-11-15T15:35:47;8.95;;;4.70;;
74912;SDS011;63878;55.624;37.304;2022-11-15T15:45:48;10.88;;;4.53;;
74912;SDS011;63878;55.624;37.304;2022-11-15T15:55:49;11.23;;;5.35;;
74912;SDS011;63878;55.624;37.304;2022-11-15T16:05:50;9.47;;;5.37;;
74912;SDS011;63878;55.624;37.304;2022-11-15T16:15:52;8.82;;;4.80;;
74912;SDS011;63878;55.624;37.304;2022-11-15T16:25:54;6.22;;;3.35;;
74912;SDS011;63878;55.624;37.304;2022-11-15T16:35:56;7.53;;;3.78;;
74912;SDS011;63878;55.624;37.304;2022-11-15T16:45:57;10.30;;;5.22;;
74912;SDS011;63878;55.624;37.304;2022-11-15T16:56:00;5.25;;;3.50;;
74912;SDS011;63878;55.624;37.304;2022-11-15T17:06:01;12.13;;;5.00;;
74912;SDS011;63878;55.624;37.304;2022-11-15T17:16:03;13.52;;;4.47;;
74912;SDS011;63878;55.624;37.304;2022-11-15T17:26:08;8.75;;;4.68;;
74912;SDS011;63878;55.624;37.304;2022-11-15T17:36:15;8.43;;;4.90;;
74912;SDS011;63878;55.624;37.304;2022-11-15T17:46:16;8.20;;;5.23;;
74912;SDS011;63878;55.624;37.304;2022-11-15T17:56:19;11.73;;;5.70;;
74912;SDS011;63878;55.624;37.304;2022-11-15T18:06:23;7.78;;;4.07;;
74912;SDS011;63878;55.624;37.304;2022-11-15T18:16:28;8.50;;;4.88;;
74912;SDS011;63878;55.624;37.304;2022-11-15T18:26:31;8.82;;;4.20;;
74912;SDS011;63878;55.624;37.304;2022-11-15T18:36:31;9.20;;;5.43;;
74912;SDS011;63878;55.624;37.304;2022-11-15T18:46:34;4.82;;;3.50;;
74912;SDS011;63878;55.624;37.304;2022-11-15T18:56:35;6.55;;;3.60;;
74912;SDS011;63878;55.624;37.304;2022-11-15T19:06:37;7.35;;;4.45;;
74912;SDS011;63878;55.624;37.304;2022-11-15T19:16:42;7.22;;;4.50;;
74912;SDS011;63878;55.624;37.304;2022-11-15T19:26:46;10.02;;;4.40;;
74912;SDS011;63878;55.624;37.304;2022-11-15T19:36:47;7.30;;;4.20;;
74912;SDS011;63878;55.624;37.304;2022-11-15T19:46:48;8.40;;;4.03;;
74912;SDS011;63878;55.624;37.304;2022-11-15T19:56:49;7.53;;;3.95;;
74912;SDS011;63878;55.624;37.304;2022-11-15T20:06:50;7.80;;;4.57;;
74912;SDS011;63878;55.624;37.304;2022-11-15T20:16:51;11.90;;;4.13;;
74912;SDS011;63878;55.624;37.304;2022-11-15T20:26:52;7.63;;;4.20;;
74912;SDS011;63878;55.624;37.304;2022-11-15T20:36:52;7.38;;;4.28;;
74912;SDS011;63878;55.624;37.304;2022-11-15T20:46:54;10.00;;;5.07;;
74912;SDS011;63878;55.624;37.304;2022-11-15T20:56:55;7.10;;;3.92;;
74912;SDS011;63878;55.624;37.304;2022-11-15T21:06:55;5.88;;;3.72;;
74912;SDS011;63878;55.624;37.304;2022-11-15T21:16:56;7.20;;;3.70;;
74912;SDS011;63878;55.624;37.304;2022-11-15T21:26:57;6.65;;;3.47;;
74912;SDS011;63878;55.624;37.304;2022-11-15T21:36:58;8.00;;;4.78;;
74912;SDS011;63878;55.624;37.304;2022-11-15T21:46:58;9.57;;;4.67;;
74912;SDS011;63878;55.624;37.304;2022-11-15T21:56:59;11.55;;;5.57;;
74912;SDS011;63878;55.624;37.304;2022-11-15T22:07:00;14.80;;;5.45;;
74912;SDS011;63878;55.624;37.304;2022-11-15T22:17:01;17.08;;;8.18;;
74912;SDS011;63878;55.624;37.304;2022-11-15T22:27:01;22.45;;;11.30;;
74912;SDS011;63878;55.624;37.304;2022-11-15T22:37:02;23.50;;;11.30;;
74912;SDS011;63878;55.624;37.304;2022-11-15T22:47:03;18.13;;;9.60;;
74912;SDS011;63878;55.624;37.304;2022-11-15T22:57:04;17.48;;;8.57;;
74912;SDS011;63878;55.624;37.304;2022-11-15T23:07:04;18.08;;;9.45;;
74912;SDS011;63878;55.624;37.304;2022-11-15T23:17:05;17.33;;;8.93;;
74912;SDS011;63878;55.624;37.304;2022-11-15T23:27:06;13.00;;;7.63;;
74912;SDS011;63878;55.624;37.304;2022-11-15T23:37:08;13.70;;;8.00;;
74912;SDS011;63878;55.624;37.304;2022-11-15T23:47:10;13.68;;;8.18;;
74912;SDS011;63878;55.624;37.304;2022-11-15T23:57:11;12.48;;;8.13;;
